Time;durP1;ratioP1;P1;durP2;ratioP2;P2;SDS_P1;SDS_P2;PMS_P1;PMS_P2;Temp;Humidity;BMP_temperature;BMP_pressure;BME280_temperature;BME280_humidity;BME280_pressure;Samples;Min_cycle;Max_cycle;Signal;HPM_P1;HPM_P2
2021/08/26 00:01:09;;;;;;;;;19.50;16.25;;;;;20.80;52.81;101585.69;5058491;28;45621;-83
2021/08/26 00:06:20;;;;;;;;;17.50;16.00;;;;;20.84;53.00;101587.53;5058259;28;45370;-84
2021/08/26 00:08:48;;;;;;;;;13.75;13.00;;;;;20.82;53.05;101595.41;5058227;28;45457;-84
2021/08/26 00:11:14;;;;;;;;;16.75;16.75;;;;;20.79;52.98;101592.72;5065673;28;46309;-83
2021/08/26 00:13:43;;;;;;;;;15.50;13.75;;;;;20.79;53.12;101594.47;5058866;28;45449;-83
2021/08/26 00:16:09;;;;;;;;;15.75;15.75;;;;;20.76;53.19;101590.03;5058210;28;45256;-83
2021/08/26 00:18:34;;;;;;;;;13.00;13.00;;;;;20.69;53.56;101594.28;5058347;28;45322;-83
2021/08/26 00:21:00;;;;;;;;;14.50;13.25;;;;;20.62;53.28;101592.44;5058427;28;46330;-83
2021/08/26 00:23:26;;;;;;;;;13.00;13.00;;;;;20.56;53.33;101593.22;5039940;28;45260;-83
2021/08/26 00:25:51;;;;;;;;;17.25;14.25;;;;;20.50;53.79;101593.13;5057791;28;45500;-83
2021/08/26 00:28:18;;;;;;;;;15.50;13.75;;;;;20.43;54.48;101593.88;5058404;28;45458;-83
2021/08/26 00:30:44;;;;;;;;;14.25;12.00;;;;;20.36;54.38;101600.78;5058577;28;45332;-83
2021/08/26 00:33:09;;;;;;;;;14.50;10.50;;;;;20.30;53.90;101591.91;5058578;28;45369;-83
2021/08/26 00:35:35;;;;;;;;;12.50;11.75;;;;;20.23;53.80;101599.69;5058085;28;45348;-83
2021/08/26 00:38:01;;;;;;;;;15.00;12.50;;;;;20.17;54.55;101594.34;5042146;28;45607;-83
2021/08/26 00:40:27;;;;;;;;;10.50;10.50;;;;;20.15;54.22;101595.13;5054031;28;45770;-83
2021/08/26 00:42:52;;;;;;;;;17.00;13.00;;;;;20.17;54.52;101598.69;5060556;28;45252;-83
2021/08/26 00:45:18;;;;;;;;;11.00;10.00;;;;;20.18;54.18;101598.75;5058248;28;45311;-83
2021/08/26 00:47:47;;;;;;;;;11.50;10.00;;;;;20.10;54.50;101595.97;5058756;28;45479;-83
2021/08/26 00:50:17;;;;;;;;;10.00;10.00;;;;;20.10;54.28;101597.69;5057825;28;46316;-83
2021/08/26 00:52:42;;;;;;;;;9.50;7.25;;;;;20.07;54.62;101598.53;5058007;28;45927;-83
2021/08/26 00:55:09;;;;;;;;;12.50;8.50;;;;;20.05;54.33;101587.09;5059787;28;45254;-84
2021/08/26 00:57:36;;;;;;;;;9.50;8.75;;;;;20.07;54.62;101595.91;5058844;28;45454;-83
2021/08/26 01:00:12;;;;;;;;;9.75;8.75;;;;;20.01;54.64;101590.53;5058197;28;45335;-83
2021/08/26 01:03:04;;;;;;;;;9.25;8.25;;;;;19.99;54.45;101589.63;5058003;28;45695;-83
2021/08/26 01:05:49;;;;;;;;;9.00;8.00;;;;;19.93;54.45;101581.59;5060354;28;46164;-83
2021/08/26 01:08:31;;;;;;;;;10.75;9.00;;;;;19.90;55.03;101585.06;5061745;28;45319;-83
2021/08/26 01:10:59;;;;;;;;;6.00;6.00;;;;;19.84;54.95;101579.69;5058515;28;45450;-83
2021/08/26 01:13:35;;;;;;;;;7.25;7.00;;;;;19.80;54.53;101578.75;5057258;28;45616;-83
2021/08/26 01:16:09;;;;;;;;;7.25;7.25;;;;;19.75;55.56;101585.63;5058697;28;45383;-83
2021/08/26 01:18:43;;;;;;;;;7.75;6.25;;;;;19.69;54.75;101584.63;5058147;28;45611;-83
2021/08/26 01:21:20;;;;;;;;;7.75;6.00;;;;;19.69;55.42;101580.28;5040273;28;45547;-83
2021/08/26 01:23:58;;;;;;;;;7.75;7.00;;;;;19.67;55.61;101571.47;5039805;28;45531;-84
2021/08/26 01:26:50;;;;;;;;;7.25;6.25;;;;;19.62;55.41;101576.66;5058422;28;45474;-83
2021/08/26 01:29:16;;;;;;;;;9.50;8.50;;;;;19.60;55.99;101574.81;5057186;28;45546;-84
2021/08/26 01:31:45;;;;;;;;;7.00;6.50;;;;;19.60;55.91;101569.56;5057186;28;45908;-83
2021/08/26 01:34:13;;;;;;;;;7.50;7.50;;;;;19.60;55.80;101574.81;5062374;28;45782;-82
2021/08/26 01:36:39;;;;;;;;;10.00;8.25;;;;;19.59;55.48;101575.69;5062284;28;45390;-84
2021/08/26 01:39:07;;;;;;;;;10.00;8.00;;;;;19.60;55.57;101577.44;5056901;28;45410;-84
2021/08/26 01:41:53;;;;;;;;;10.25;6.75;;;;;19.59;55.29;101573.94;5056887;28;45501;-83
2021/08/26 01:44:25;;;;;;;;;5.25;4.25;;;;;19.60;56.13;101574.81;5037036;28;45344;-84
2021/08/26 01:46:52;;;;;;;;;8.50;7.50;;;;;19.57;55.65;101569.53;5037192;28;45396;-84
2021/08/26 01:49:18;;;;;;;;;9.50;8.00;;;;;19.54;55.74;101569.47;5045319;28;45265;-83
2021/08/26 01:51:44;;;;;;;;;9.00;8.00;;;;;19.55;56.00;101574.72;5057085;28;45918;-84
2021/08/26 01:54:09;;;;;;;;;9.25;7.75;;;;;19.57;56.05;101573.03;5050077;28;45354;-84
2021/08/26 01:56:36;;;;;;;;;7.25;6.50;;;;;19.59;55.68;101568.69;5055396;28;45320;-83
2021/08/26 01:59:02;;;;;;;;;9.00;7.75;;;;;19.60;56.10;101573.09;5060503;28;45300;-83
2021/08/26 02:01:28;;;;;;;;;12.00;10.50;;;;;19.59;55.99;101558.19;5060820;28;45355;-83
2021/08/26 02:03:55;;;;;;;;;15.25;9.00;;;;;19.61;55.61;101567.00;5060390;28;45422;-83
2021/08/26 02:06:21;;;;;;;;;10.50;9.50;;;;;19.62;55.59;101562.59;5056997;28;45373;-83
2021/08/26 02:08:46;;;;;;;;;11.75;10.25;;;;;19.65;55.66;101562.69;5047940;28;45301;-83
2021/08/26 02:11:12;;;;;;;;;9.00;8.75;;;;;19.64;56.01;101567.06;5057060;28;45888;-83
2021/08/26 02:13:37;;;;;;;;;10.75;10.25;;;;;19.65;55.66;101570.56;5056419;28;45446;-84
2021/08/26 02:16:04;;;;;;;;;10.25;9.00;;;;;19.63;55.95;101567.00;5056342;28;45363;-84
2021/08/26 02:18:29;;;;;;;;;13.75;10.25;;;;;19.61;56.09;101563.47;5056667;28;45659;-83
2021/08/26 02:20:55;;;;;;;;;12.00;9.75;;;;;19.58;55.85;101560.78;5056104;28;45796;-83
2021/08/26 02:23:20;;;;;;;;;11.00;10.00;;;;;19.52;55.98;101563.28;5056078;28;45482;-83
2021/08/26 02:25:46;;;;;;;;;15.25;11.75;;;;;19.45;56.23;101564.91;5055563;28;45410;-84
2021/08/26 02:28:11;;;;;;;;;10.00;7.00;;;;;19.41;55.79;101563.94;5056008;28;45354;-84
2021/08/26 02:30:38;;;;;;;;;10.50;8.25;;;;;19.38;56.06;101555.13;5058285;28;46318;-83
2021/08/26 02:33:04;;;;;;;;;9.50;8.50;;;;;19.36;55.73;101557.75;5061909;28;45739;-83
2021/08/26 02:35:30;;;;;;;;;12.50;9.25;;;;;19.33;56.17;101555.91;5057039;28;45947;-84
2021/08/26 02:37:55;;;;;;;;;12.25;8.00;;;;;19.27;56.49;101549.69;5056632;28;45657;-83
2021/08/26 02:40:21;;;;;;;;;5.50;5.00;;;;;19.24;56.35;101557.47;5055955;28;46409;-83
2021/08/26 02:42:46;;;;;;;;;6.00;4.75;;;;;19.23;56.50;101560.94;5056352;28;45350;-82
2021/08/26 02:45:12;;;;;;;;;8.00;7.00;;;;;19.22;56.65;101560.06;5056756;28;45341;-83
2021/08/26 02:47:38;;;;;;;;;6.75;5.50;;;;;19.19;55.95;101562.63;5056245;28;45572;-83
2021/08/26 02:50:04;;;;;;;;;4.00;3.50;;;;;19.16;56.51;101557.31;5056760;28;45761;-83
2021/08/26 02:52:29;;;;;;;;;4.50;4.00;;;;;19.10;56.38;101560.69;5061478;28;45223;-83
2021/08/26 02:54:55;;;;;;;;;6.00;5.25;;;;;19.08;56.32;101551.00;5061341;28;45236;-83
2021/08/26 02:57:21;;;;;;;;;5.00;4.00;;;;;19.07;56.58;101549.25;5057961;28;45501;-83
2021/08/26 02:59:46;;;;;;;;;5.00;4.00;;;;;19.08;56.43;101551.88;5061458;28;45530;-84
2021/08/26 03:02:12;;;;;;;;;4.50;3.25;;;;;19.11;56.68;101549.34;5038523;28;45502;-83
2021/08/26 03:04:37;;;;;;;;;5.25;5.25;;;;;19.12;56.54;101547.59;5056507;28;45442;-83
2021/08/26 03:07:03;;;;;;;;;4.00;4.00;;;;;19.16;56.20;101546.81;5055618;28;45439;-83
2021/08/26 03:09:29;;;;;;;;;3.75;3.75;;;;;19.20;56.44;101551.28;5055807;28;45346;-83
2021/08/26 03:11:55;;;;;;;;;3.75;3.00;;;;;19.24;55.90;101544.34;5039403;28;45808;-83
2021/08/26 03:14:20;;;;;;;;;2.00;2.00;;;;;19.18;55.95;101551.22;5055710;28;45339;-83
2021/08/26 03:16:46;;;;;;;;;5.25;4.00;;;;;19.17;56.27;101544.19;5056090;28;45244;-83
2021/08/26 03:19:12;;;;;;;;;3.75;3.75;;;;;19.12;55.76;101542.34;5055686;28;45409;-83
2021/08/26 03:21:37;;;;;;;;;4.50;4.00;;;;;19.03;56.48;101543.03;5055317;28;45498;-84
2021/08/26 03:24:04;;;;;;;;;3.25;3.00;;;;;19.01;56.81;101537.75;5056343;28;45221;-83
2021/08/26 03:26:30;;;;;;;;;6.00;4.25;;;;;19.01;56.39;101534.25;5060612;28;45391;-83
2021/08/26 03:28:56;;;;;;;;;3.00;3.00;;;;;18.99;56.38;101530.69;5059189;28;45633;-83
2021/08/26 03:31:21;;;;;;;;;1.75;1.75;;;;;19.00;56.24;101532.47;5055268;28;45337;-83
2021/08/26 03:33:47;;;;;;;;;3.75;3.75;;;;;19.00;56.58;101529.84;5055702;28;45293;-83
2021/08/26 03:36:12;;;;;;;;;2.75;2.75;;;;;19.00;56.40;101528.13;5056227;28;45507;-83
2021/08/26 03:38:39;;;;;;;;;3.25;3.25;;;;;18.99;56.22;101531.59;5056944;28;45315;-83
2021/08/26 03:41:05;;;;;;;;;4.00;4.00;;;;;18.97;56.64;101535.94;5059069;28;45320;-83
2021/08/26 03:43:30;;;;;;;;;3.00;3.00;;;;;18.93;56.54;101531.44;5058769;28;45494;-84
2021/08/26 03:45:56;;;;;;;;;6.50;3.50;;;;;18.93;56.35;101536.69;5059342;28;45450;-84
2021/08/26 03:48:22;;;;;;;;;3.00;3.00;;;;;18.90;56.50;101533.97;5058656;28;45810;-83
2021/08/26 03:50:47;;;;;;;;;5.00;2.00;;;;;18.86;56.84;101533.00;5059113;28;45284;-83
2021/08/26 03:53:13;;;;;;;;;4.00;4.00;;;;;18.86;57.02;101540.03;5044569;28;45347;-84
2021/08/26 03:55:39;;;;;;;;;2.00;2.00;;;;;18.85;56.64;101539.13;5061081;28;45542;-84
2021/08/26 03:58:04;;;;;;;;;4.00;3.00;;;;;18.86;56.81;101535.63;5058575;28;45443;-83
2021/08/26 04:00:30;;;;;;;;;2.00;2.00;;;;;18.87;56.48;101537.41;5058292;28;45416;-84
2021/08/26 04:02:55;;;;;;;;;2.50;2.50;;;;;18.88;56.44;101548.81;5053289;28;45347;-84
2021/08/26 04:05:21;;;;;;;;;4.00;3.50;;;;;18.92;56.67;101549.75;5058821;28;45432;-83
2021/08/26 04:07:47;;;;;;;;;3.75;3.00;;;;;18.95;56.49;101553.38;5044902;28;45730;-84
2021/08/26 04:10:12;;;;;;;;;2.25;2.25;;;;;19.00;57.01;101545.59;5050612;28;45448;-83
2021/08/26 04:12:38;;;;;;;;;3.00;3.00;;;;;19.05;55.90;101545.69;5058415;28;45315;-83
2021/08/26 04:15:04;;;;;;;;;3.00;3.00;;;;;19.08;56.40;101544.00;5058729;28;45318;-84
2021/08/26 04:17:30;;;;;;;;;4.00;3.00;;;;;19.09;56.39;101550.16;5057846;28;46177;-83
2021/08/26 04:19:55;;;;;;;;;4.00;3.25;;;;;19.03;56.13;101550.91;5058285;28;45387;-84
2021/08/26 04:22:21;;;;;;;;;2.75;2.25;;;;;19.02;56.25;101554.41;5061898;28;45339;-83
2021/08/26 04:24:46;;;;;;;;;2.50;2.50;;;;;18.98;56.20;101550.81;5046692;28;45209;-83
2021/08/26 04:27:12;;;;;;;;;5.00;5.00;;;;;18.96;56.46;101549.00;5058844;28;45312;-83
2021/08/26 04:29:38;;;;;;;;;3.00;2.00;;;;;18.93;56.54;101548.91;5058103;28;45929;-82
2021/08/26 04:32:05;;;;;;;;;3.50;2.50;;;;;18.90;56.53;101548.84;5062176;28;45387;-84
2021/08/26 04:34:30;;;;;;;;;7.00;3.75;;;;;18.81;56.61;101539.91;5058776;28;45348;-85
2021/08/26 04:36:56;;;;;;;;;3.50;2.00;;;;;18.76;56.82;101541.53;5058404;28;46415;-84
2021/08/26 04:39:22;;;;;;;;;3.00;3.00;;;;;18.69;56.82;101534.38;5068017;28;45493;-84
2021/08/26 04:41:47;;;;;;;;;4.00;4.00;;;;;18.70;56.87;101541.41;5052729;28;45350;-85
2021/08/26 04:44:13;;;;;;;;;4.75;4.75;;;;;18.66;57.35;101536.94;5060144;28;45508;-84
2021/08/26 04:46:38;;;;;;;;;4.50;3.50;;;;;18.66;57.09;101529.06;5060013;28;45982;-84
2021/08/26 04:49:04;;;;;;;;;3.00;3.00;;;;;18.67;57.13;101531.75;5056871;28;45519;-84
2021/08/26 04:51:30;;;;;;;;;4.00;3.00;;;;;18.71;57.46;101524.81;5062262;28;45582;-84
2021/08/26 04:53:55;;;;;;;;;2.25;2.25;;;;;18.77;57.17;101527.56;5047650;28;45403;-84
2021/08/26 04:56:21;;;;;;;;;4.00;3.00;;;;;18.77;57.46;101531.94;5067173;28;45049;-84
2021/08/26 04:58:47;;;;;;;;;2.00;2.00;;;;;18.81;57.09;101531.13;5059917;28;45666;-85
2021/08/26 05:01:12;;;;;;;;;4.25;2.50;;;;;18.82;57.36;101533.81;5058566;28;45393;-84
2021/08/26 05:03:38;;;;;;;;;4.00;2.75;;;;;18.84;57.23;101532.09;5058217;28;45260;-84
2021/08/26 05:06:04;;;;;;;;;4.75;4.00;;;;;18.88;57.20;101533.06;5056959;28;46093;-85
2021/08/26 05:08:30;;;;;;;;;3.00;3.00;;;;;18.85;57.44;101535.63;5057716;28;45316;-85
2021/08/26 05:10:56;;;;;;;;;5.25;3.25;;;;;18.85;57.07;101539.13;5057372;28;45502;-84
2021/08/26 05:13:21;;;;;;;;;5.00;4.75;;;;;18.86;56.91;101537.41;5057638;28;45565;-85
2021/08/26 05:15:47;;;;;;;;;3.00;3.00;;;;;18.86;56.81;101546.13;5056467;28;45524;-84
2021/08/26 05:18:13;;;;;;;;;4.00;4.00;;;;;18.82;57.16;101535.53;5057739;28;45482;-83
2021/08/26 05:20:38;;;;;;;;;2.75;2.75;;;;;18.76;57.25;101538.91;5062752;28;45437;-83
2021/08/26 05:23:04;;;;;;;;;6.00;4.00;;;;;18.74;57.39;101531.88;5056582;28;45303;-83
2021/08/26 05:25:30;;;;;;;;;4.00;3.00;;;;;18.76;57.50;101543.28;5057536;28;45407;-83
2021/08/26 05:27:56;;;;;;;;;3.75;3.75;;;;;18.77;56.96;101545.94;5056560;28;45329;-83
2021/08/26 05:30:22;;;;;;;;;3.00;1.25;;;;;18.78;57.27;101542.47;5038249;28;45576;-83
2021/08/26 05:32:48;;;;;;;;;4.00;3.25;;;;;18.76;57.05;101548.53;5056713;28;45380;-83
2021/08/26 05:35:14;;;;;;;;;2.75;2.75;;;;;18.69;58.10;101540.50;5053673;28;45877;-83
2021/08/26 05:37:40;;;;;;;;;3.25;3.25;;;;;18.65;57.45;101543.94;5038192;28;45742;-83
2021/08/26 05:40:06;;;;;;;;;3.25;3.25;;;;;18.62;57.97;101548.22;5056159;28;45507;-83
2021/08/26 05:42:32;;;;;;;;;2.00;2.00;;;;;18.56;58.25;101546.34;5056286;28;45458;-83
2021/08/26 05:44:57;;;;;;;;;3.00;2.00;;;;;18.53;58.09;101539.25;5056494;28;45508;-82
2021/08/26 05:47:23;;;;;;;;;2.75;2.75;;;;;18.53;58.08;101534.00;5057192;28;45436;-83
2021/08/26 05:49:49;;;;;;;;;3.25;3.25;;;;;18.55;58.34;101541.94;5060368;28;45253;-83
2021/08/26 05:52:15;;;;;;;;;2.75;2.75;;;;;18.54;57.96;101541.03;5059151;28;45457;-82
2021/08/26 05:54:41;;;;;;;;;3.00;3.00;;;;;18.57;58.45;101532.38;5055929;28;45463;-82
2021/08/26 05:57:06;;;;;;;;;6.00;3.00;;;;;18.59;58.19;101529.78;5055384;28;45328;-84
2021/08/26 05:59:32;;;;;;;;;5.00;3.25;;;;;18.59;58.17;101535.91;5038545;28;45375;-83
2021/08/26 06:02:00;;;;;;;;;2.50;2.00;;;;;18.60;58.44;101528.94;5056164;28;45924;-87
2021/08/26 06:04:26;;;;;;;;;5.25;3.00;;;;;18.63;58.00;101534.22;5068531;28;45515;-84
2021/08/26 06:06:52;;;;;;;;;4.50;3.00;;;;;18.65;58.35;101541.31;5062081;28;45499;-85
2021/08/26 06:09:17;;;;;;;;;4.00;3.00;;;;;18.65;58.60;101540.41;5058941;28;45366;-78
2021/08/26 06:11:43;;;;;;;;;5.25;3.00;;;;;18.67;58.33;101541.31;5057012;28;45248;-78
2021/08/26 06:14:10;;;;;;;;;4.00;4.00;;;;;18.64;58.34;101542.16;5056055;28;45366;-80
2021/08/26 06:16:35;;;;;;;;;4.00;1.50;;;;;18.62;58.22;101541.22;5059751;28;45719;-86
2021/08/26 06:19:01;;;;;;;;;4.00;4.00;;;;;18.66;58.22;101540.47;5048944;28;45474;-81
2021/08/26 06:21:26;;;;;;;;;3.00;3.00;;;;;18.68;58.05;101540.47;5046743;28;45266;-78
2021/08/26 06:23:52;;;;;;;;;3.00;2.50;;;;;18.71;57.88;101530.94;5056033;28;45451;-80
2021/08/26 06:26:18;;;;;;;;;3.50;3.00;;;;;18.75;58.38;101545.00;5055058;28;45324;-79
2021/08/26 06:28:43;;;;;;;;;4.00;4.00;;;;;18.79;58.11;101546.84;5056954;28;45819;-78
2021/08/26 06:31:09;;;;;;;;;4.75;3.25;;;;;18.83;57.90;101545.19;5046517;28;45547;-80
2021/08/26 06:33:35;;;;;;;;;3.25;3.00;;;;;18.86;58.21;101550.50;5056199;28;45271;-79
2021/08/26 06:36:01;;;;;;;;;3.00;3.00;;;;;18.90;58.25;101546.22;5037496;28;45544;-80
2021/08/26 06:38:26;;;;;;;;;6.50;3.50;;;;;18.91;58.58;101546.22;5055435;28;45436;-78
2021/08/26 06:40:52;;;;;;;;;2.75;2.50;;;;;18.93;58.32;101541.03;5057476;28;45611;-79
2021/08/26 06:43:18;;;;;;;;;4.25;3.75;;;;;18.98;58.45;101542.94;5057138;28;46020;-78
2021/08/26 06:45:43;;;;;;;;;5.25;4.00;;;;;19.02;58.59;101546.53;5055290;28;45443;-80
2021/08/26 06:48:09;;;;;;;;;3.50;2.00;;;;;19.00;58.38;101545.59;5054434;28;45323;-79
2021/08/26 06:50:35;;;;;;;;;3.25;3.25;;;;;18.94;58.19;101543.72;5038025;28;45670;-79
2021/08/26 06:53:00;;;;;;;;;3.00;3.00;;;;;18.94;58.21;101542.84;5055428;28;45961;-80
2021/08/26 06:55:26;;;;;;;;;2.50;2.50;;;;;18.97;58.58;101540.28;5055451;28;45259;-81
2021/08/26 06:57:51;;;;;;;;;3.00;3.00;;;;;19.01;58.73;101542.13;5056367;28;45328;-82
2021/08/26 07:00:17;;;;;;;;;2.75;2.75;;;;;19.08;58.26;101543.16;5056112;28;45574;-84
2021/08/26 07:02:43;;;;;;;;;4.25;4.00;;;;;19.13;58.62;101541.50;5055371;28;46084;-79
2021/08/26 07:05:09;;;;;;;;;5.00;5.00;;;;;19.15;58.46;101542.41;5055161;28;45373;-80
2021/08/26 07:07:35;;;;;;;;;5.00;5.00;;;;;19.14;58.35;101549.41;5055503;28;45238;-78
2021/08/26 07:10:00;;;;;;;;;9.00;5.50;;;;;19.16;58.77;101545.09;5055455;28;45278;-81
2021/08/26 07:12:32;;;;;;;;;6.25;4.50;;;;;19.21;58.27;101539.03;5054327;28;45572;-81
2021/08/26 07:14:59;;;;;;;;;4.25;4.00;;;;;19.26;58.81;101532.16;5060061;28;45231;-80
2021/08/26 07:17:25;;;;;;;;;6.75;5.00;;;;;19.35;58.94;101532.34;5060190;28;45315;-79
2021/08/26 07:19:51;;;;;;;;;6.50;6.25;;;;;19.44;58.96;101532.50;5059370;28;45378;-79
2021/08/26 07:22:18;;;;;;;;;7.00;5.00;;;;;19.49;58.46;101522.09;5040856;28;45860;-79
2021/08/26 07:24:43;;;;;;;;;7.00;5.25;;;;;19.56;58.68;101530.97;5058486;28;45442;-80
2021/08/26 07:27:10;;;;;;;;;5.25;5.25;;;;;19.62;58.40;101531.09;5059034;28;45317;-81
2021/08/26 07:29:36;;;;;;;;;6.25;6.25;;;;;19.66;58.62;101527.66;5059681;28;45583;-80
2021/08/26 07:32:02;;;;;;;;;5.75;5.50;;;;;19.69;58.51;101535.63;5057969;28;45489;-82
2021/08/26 07:34:28;;;;;;;;;7.50;5.50;;;;;19.68;58.43;101527.69;5059023;28;46091;-82
2021/08/26 07:36:56;;;;;;;;;10.25;6.75;;;;;19.66;58.33;101527.66;5040432;28;45600;-83
2021/08/26 07:39:22;;;;;;;;;7.00;4.25;;;;;19.70;58.10;101525.97;5045129;28;45472;-79
2021/08/26 07:41:48;;;;;;;;;6.25;5.00;;;;;19.74;58.10;101526.06;5064620;28;45432;-81
2021/08/26 07:44:13;;;;;;;;;8.00;7.00;;;;;19.79;57.72;101528.78;5066100;28;45397;-87
2021/08/26 07:46:39;;;;;;;;;6.75;6.50;;;;;19.86;57.87;101530.72;5047094;28;45424;-84
2021/08/26 07:49:06;;;;;;;;;7.25;6.00;;;;;19.90;58.21;101531.63;5042603;28;45513;-79
2021/08/26 07:51:32;;;;;;;;;10.00;5.50;;;;;19.90;57.96;101537.78;5041667;28;47924;-82
2021/08/26 07:53:59;;;;;;;;;5.50;5.00;;;;;19.90;57.79;101534.28;5041550;28;45258;-81
2021/08/26 07:56:24;;;;;;;;;8.25;6.00;;;;;19.89;57.77;101538.63;5060378;28;45265;-79
2021/08/26 07:58:50;;;;;;;;;7.25;6.00;;;;;19.91;57.54;101528.16;5059159;28;45261;-78
2021/08/26 08:01:16;;;;;;;;;5.25;5.00;;;;;19.90;57.97;101529.88;5059960;28;45652;-79
2021/08/26 08:03:42;;;;;;;;;7.75;7.25;;;;;19.95;58.33;101535.22;5061584;28;45390;-79
2021/08/26 08:06:07;;;;;;;;;8.25;5.00;;;;;19.97;57.80;101530.00;5061061;28;45244;-79
2021/08/26 08:08:33;;;;;;;;;6.75;5.50;;;;;19.97;57.76;101525.63;5061799;28;45434;-79
2021/08/26 08:10:59;;;;;;;;;8.25;7.00;;;;;20.05;57.63;101526.63;5060425;28;45522;-79
2021/08/26 08:13:25;;;;;;;;;5.50;5.50;;;;;20.09;57.92;101530.19;5058855;28;45465;-80
2021/08/26 08:15:51;;;;;;;;;9.00;7.75;;;;;20.14;57.77;101525.03;5057797;28;45441;-79
2021/08/26 08:18:17;;;;;;;;;7.00;5.00;;;;;20.22;57.72;101526.03;5057811;28;45475;-80
2021/08/26 08:20:42;;;;;;;;;9.50;5.75;;;;;20.26;57.46;101530.47;5058729;28;45426;-80
2021/08/26 08:23:08;;;;;;;;;7.75;5.75;;;;;20.29;57.42;101527.91;5058557;28;45311;-78
2021/08/26 08:25:34;;;;;;;;;6.25;6.00;;;;;20.31;57.63;101522.66;5056809;28;45293;-77
2021/08/26 08:28:00;;;;;;;;;5.00;5.00;;;;;20.30;58.08;101524.41;5058130;28;45550;-77
2021/08/26 08:30:28;;;;;;;;;5.75;5.75;;;;;20.34;57.99;101521.00;5057628;28;45371;-77
2021/08/26 08:32:55;;;;;;;;;5.75;5.00;;;;;20.38;57.79;101524.53;5057726;28;45422;-80
2021/08/26 08:35:24;;;;;;;;;8.25;8.00;;;;;20.38;58.13;101522.78;5058306;28;45418;-77
2021/08/26 08:37:50;;;;;;;;;3.50;3.50;;;;;20.41;57.90;101525.47;5058272;28;45488;-77
2021/08/26 08:40:17;;;;;;;;;4.00;4.00;;;;;20.48;57.94;101520.28;5057269;28;45580;-76
2021/08/26 08:42:45;;;;;;;;;3.50;3.50;;;;;20.56;57.71;101526.59;5057895;28;45960;-77
2021/08/26 08:45:11;;;;;;;;;6.25;3.25;;;;;20.64;57.94;101522.31;5057366;28;45431;-77
2021/08/26 08:47:37;;;;;;;;;6.25;5.00;;;;;20.63;57.70;101517.91;5058370;28;45240;-79
2021/08/26 08:50:06;;;;;;;;;4.50;4.50;;;;;20.67;57.54;101521.47;5057364;28;46352;-77
2021/08/26 08:52:38;;;;;;;;;4.00;4.00;;;;;20.67;57.44;101525.00;5057533;28;45964;-76
2021/08/26 08:55:06;;;;;;;;;3.75;3.00;;;;;20.68;58.35;101525.88;5057301;28;45285;-77
2021/08/26 08:57:32;;;;;;;;;3.00;3.00;;;;;20.83;57.75;101533.13;5057646;28;45464;-80
2021/08/26 08:59:57;;;;;;;;;4.75;4.75;;;;;20.93;57.91;101519.22;5057116;28;45959;-77
2021/08/26 09:02:26;;;;;;;;;4.75;2.75;;;;;21.00;57.31;101514.91;5057204;28;45366;-77
2021/08/26 09:04:56;;;;;;;;;5.50;3.00;;;;;20.99;57.50;101513.16;5056431;28;45214;-78
2021/08/26 09:07:28;;;;;;;;;3.25;3.25;;;;;20.94;57.80;101513.09;5058090;28;45508;-78
2021/08/26 09:09:54;;;;;;;;;5.25;2.75;;;;;20.94;58.42;101520.13;5057557;28;46004;-79
2021/08/26 09:12:40;;;;;;;;;2.75;2.00;;;;;21.00;58.26;101514.91;5056741;28;45366;-81
2021/08/26 09:15:19;;;;;;;;;2.25;2.00;;;;;21.08;58.51;101520.28;5058726;28;45191;-86
2021/08/26 09:17:46;;;;;;;;;5.75;3.25;;;;;21.12;58.65;101520.34;5059409;28;45489;-84
2021/08/26 09:20:18;;;;;;;;;5.00;3.00;;;;;21.17;58.42;101518.63;5058353;28;45250;-86
2021/08/26 09:22:44;;;;;;;;;3.75;2.75;;;;;21.19;57.59;101519.53;5060647;28;45644;-81
2021/08/26 09:25:13;;;;;;;;;2.75;2.00;;;;;21.24;58.06;101516.09;5057743;28;45528;-80
2021/08/26 09:27:42;;;;;;;;;1.25;1.25;;;;;21.24;57.62;101514.34;5056656;28;45216;-82
2021/08/26 09:30:13;;;;;;;;;2.50;2.50;;;;;21.30;57.65;101514.41;5043320;28;46183;-80
2021/08/26 09:32:56;;;;;;;;;6.50;5.00;;;;;21.36;58.12;101512.72;5054432;28;45232;-78
2021/08/26 09:35:26;;;;;;;;;3.00;3.00;;;;;21.37;57.38;101520.66;5042729;28;45367;-77
2021/08/26 09:37:55;;;;;;;;;3.75;2.75;;;;;21.33;57.67;101511.81;5057182;28;45280;-75
2021/08/26 09:40:24;;;;;;;;;1.75;1.75;;;;;21.38;57.59;101508.34;5056633;28;45311;-76
2021/08/26 09:43:01;;;;;;;;;7.50;6.50;;;;;21.49;57.88;101510.22;5056852;28;45235;-75
2021/08/26 09:45:32;;;;;;;;;4.00;4.00;;;;;21.64;57.36;101514.84;5056960;28;45461;-79
2021/08/26 09:48:10;;;;;;;;;4.00;3.00;;;;;21.70;57.23;101507.84;5056234;28;45377;-77
2021/08/26 09:50:50;;;;;;;;;5.25;4.00;;;;;21.77;57.03;101505.28;5038042;28;46703;-74
2021/08/26 09:53:18;;;;;;;;;3.75;3.00;;;;;21.86;56.79;101508.88;5056576;28;45390;-76
2021/08/26 09:56:04;;;;;;;;;3.75;3.00;;;;;21.85;56.93;101515.00;5056534;28;45193;-75
2021/08/26 09:58:33;;;;;;;;;3.00;3.00;;;;;21.85;56.93;101517.63;5056701;28;45616;-75
2021/08/26 10:01:23;;;;;;;;;1.25;1.25;;;;;21.85;57.62;101521.19;5056334;28;45444;-77
2021/08/26 10:03:50;;;;;;;;;1.75;1.75;;;;;21.88;57.79;101518.53;5038646;28;45365;-76
2021/08/26 10:06:17;;;;;;;;;2.75;1.50;;;;;21.96;58.05;101510.72;5038217;28;45389;-78
2021/08/26 10:08:48;;;;;;;;;1.75;1.25;;;;;22.02;57.92;101512.53;5061982;28;45422;-80
2021/08/26 10:11:17;;;;;;;;;2.00;2.00;;;;;22.04;57.40;101510.78;5042138;28;47316;-77
2021/08/26 10:13:43;;;;;;;;;2.00;2.00;;;;;22.08;57.35;101512.59;5061670;28;45970;-75
2021/08/26 10:16:09;;;;;;;;;1.00;1.00;;;;;22.11;57.53;101502.94;5056273;28;45274;-80
2021/08/26 10:18:36;;;;;;;;;2.00;1.00;;;;;22.15;57.21;101502.94;5056514;28;45702;-81
2021/08/26 10:21:02;;;;;;;;;2.00;1.00;;;;;22.16;57.37;101497.69;5055909;28;45649;-79
2021/08/26 10:23:28;;;;;;;;;1.00;1.00;;;;;22.17;57.01;101501.22;5057038;28;45344;-79
2021/08/26 10:25:57;;;;;;;;;0.75;0.50;;;;;22.16;56.73;101497.69;5058836;28;45462;-79
2021/08/26 10:28:24;;;;;;;;;2.50;1.25;;;;;22.20;56.44;101483.66;5064836;28;45517;-82
2021/08/26 10:30:50;;;;;;;;;1.75;1.75;;;;;22.32;56.25;101484.59;5068651;28;46348;-83
2021/08/26 10:33:26;;;;;;;;;1.00;1.00;;;;;22.49;56.15;101488.28;5065952;28;45549;-79
2021/08/26 10:36:13;;;;;;;;;1.50;1.50;;;;;22.66;55.73;101487.50;5063983;28;45335;-78
2021/08/26 10:38:39;;;;;;;;;1.00;1.00;;;;;22.82;55.14;101486.72;5058696;28;45216;-79
2021/08/26 10:41:28;;;;;;;;;2.00;2.00;;;;;22.87;54.66;101489.38;5057991;28;45494;-80
2021/08/26 10:44:00;;;;;;;;;0.50;0.50;;;;;22.93;53.80;101492.03;5055973;28;45548;-86
2021/08/26 10:46:55;;;;;;;;;0.50;0.50;;;;;22.86;54.13;101495.53;5056786;28;45301;-82
2021/08/26 10:49:23;;;;;;;;;1.75;1.00;;;;;22.76;54.14;101493.72;5044300;28;45510;-78
2021/08/26 10:51:51;;;;;;;;;2.25;1.00;;;;;22.63;54.43;101493.66;5057658;28;46095;-80
2021/08/26 10:54:30;;;;;;;;;2.00;1.00;;;;;22.61;53.99;101491.88;5058802;28;45166;-88
2021/08/26 10:56:57;;;;;;;;;0.50;0.50;;;;;22.57;55.07;101497.13;5047048;28;45260;-90
2021/08/26 10:59:31;;;;;;;;;0.00;0.00;;;;;22.51;54.72;101491.84;5062525;28;45430;-79
2021/08/26 11:01:58;;;;;;;;;1.00;1.00;;;;;22.41;55.51;101497.88;5057338;28;45469;-79
2021/08/26 11:04:30;;;;;;;;;2.25;1.00;;;;;22.35;56.26;101492.56;5057302;28;45695;-81
2021/08/26 11:06:57;;;;;;;;;2.00;2.00;;;;;22.40;56.14;101507.56;5054943;28;45341;-79
2021/08/26 11:09:27;;;;;;;;;0.25;0.25;;;;;22.52;56.06;101505.88;5057881;28;45264;-77
2021/08/26 11:11:59;;;;;;;;;1.00;1.00;;;;;22.48;55.59;101501.44;5039599;28;46572;-77
2021/08/26 11:14:27;;;;;;;;;2.00;1.00;;;;;22.46;54.71;101506.72;5040905;28;45464;-78
2021/08/26 11:16:55;;;;;;;;;2.50;2.50;;;;;22.47;54.26;101507.59;5058664;28;45264;-78
2021/08/26 11:19:21;;;;;;;;;3.75;3.50;;;;;22.50;53.35;101497.97;5057895;28;45252;-78
2021/08/26 11:21:46;;;;;;;;;5.00;3.50;;;;;22.41;53.22;101498.78;5057737;28;45580;-77
2021/08/26 11:24:12;;;;;;;;;6.50;5.00;;;;;22.23;53.25;101499.50;5063907;28;45419;-77
2021/08/26 11:26:51;;;;;;;;;2.25;2.25;;;;;22.10;53.40;101502.91;5063689;28;45393;-78
2021/08/26 11:29:17;;;;;;;;;4.25;4.25;;;;;22.09;53.67;101495.88;5060589;28;45324;-78